Time;durP1;ratioP1;P1;durP2;ratioP2;P2;SDS_P1;SDS_P2;PMS_P1;PMS_P2;Temp;Humidity;BMP_temperature;BMP_pressure;BME280_temperature;BME280_humidity;BME280_pressure;Samples;Min_cycle;Max_cycle;Signal;HPM_P1;HPM_P2
2023/09/25 00:01:00;;;;;;;0.40;0.40;;;11.80;99.90;;;;;;5029599;28;20060;-73
2023/09/25 00:03:25;;;;;;;0.40;0.40;;;11.90;99.90;;;;;;5031759;28;20503;-73
2023/09/25 00:05:51;;;;;;;0.55;0.55;;;12.00;99.90;;;;;;5030378;28;20049;-73
2023/09/25 00:08:17;;;;;;;0.40;0.40;;;12.20;99.90;;;;;;5030273;28;20736;-73
2023/09/25 00:10:42;;;;;;;0.50;0.50;;;12.20;99.90;;;;;;5031283;28;20120;-74
2023/09/25 00:13:08;;;;;;;0.40;0.40;;;12.30;99.90;;;;;;5031364;28;20141;-73
2023/09/25 00:15:34;;;;;;;0.40;0.40;;;12.40;99.90;;;;;;5031243;28;20080;-73
2023/09/25 00:18:00;;;;;;;0.30;0.30;;;12.50;99.90;;;;;;5031810;28;20513;-73
2023/09/25 00:20:26;;;;;;;0.40;0.40;;;12.50;99.90;;;;;;5030611;28;20037;-73
2023/09/25 00:22:52;;;;;;;0.30;0.30;;;12.60;99.90;;;;;;5031739;28;20440;-73
2023/09/25 00:25:22;;;;;;;0.35;0.35;;;12.60;99.90;;;;;;5030794;28;20053;-73
2023/09/25 00:27:48;;;;;;;0.40;0.40;;;12.60;99.90;;;;;;5031280;28;20120;-74
2023/09/25 00:30:14;;;;;;;0.43;0.43;;;12.70;99.90;;;;;;5030715;28;20136;-73
2023/09/25 00:32:40;;;;;;;0.30;0.30;;;12.70;99.90;;;;;;5030266;28;20057;-73
2023/09/25 00:35:07;;;;;;;0.45;0.45;;;12.70;99.90;;;;;;5030143;28;20049;-73
2023/09/25 00:37:34;;;;;;;0.30;0.30;;;12.80;99.90;;;;;;5030772;28;20637;-73
2023/09/25 00:40:04;;;;;;;0.32;0.32;;;12.90;99.90;;;;;;5029298;28;20049;-74
2023/09/25 00:42:30;;;;;;;0.30;0.30;;;12.90;99.90;;;;;;5029758;28;20053;-74
2023/09/25 00:44:56;;;;;;;0.30;0.30;;;12.90;99.90;;;;;;5030103;28;20443;-74
2023/09/25 00:47:22;;;;;;;0.38;0.38;;;12.90;99.90;;;;;;5029862;28;20511;-74
2023/09/25 00:49:47;;;;;;;0.85;0.75;;;12.90;99.90;;;;;;5031583;28;20472;-74
2023/09/25 00:52:14;;;;;;;0.30;0.30;;;12.90;99.90;;;;;;5030666;28;20042;-74
2023/09/25 00:54:39;;;;;;;0.40;0.40;;;12.90;99.90;;;;;;5029742;28;20888;-74
2023/09/25 00:57:06;;;;;;;0.32;0.32;;;12.90;99.90;;;;;;5030778;28;20089;-74
2023/09/25 00:59:32;;;;;;;;;;;12.80;99.90;;;;;;5030583;28;20049;-74
2023/09/25 01:01:58;;;;;;;0.40;0.40;;;12.80;99.90;;;;;;5030618;28;20000;-74
2023/09/25 01:04:24;;;;;;;0.47;0.47;;;12.70;99.90;;;;;;5030339;28;20488;-73
2023/09/25 01:06:50;;;;;;;0.57;0.55;;;12.70;99.90;;;;;;5028767;28;20420;-73
2023/09/25 01:09:16;;;;;;;;;;;12.70;99.90;;;;;;5029757;28;20041;-73
2023/09/25 01:11:42;;;;;;;0.57;0.57;;;12.70;99.90;;;;;;5026153;28;19917;-74
2023/09/25 01:14:09;;;;;;;0.63;0.63;;;12.70;99.90;;;;;;5028319;28;20050;-72
2023/09/25 01:16:36;;;;;;;0.38;0.38;;;12.60;99.90;;;;;;5029179;28;20160;-72
2023/09/25 01:19:05;;;;;;;0.30;0.30;;;12.50;99.90;;;;;;5028407;28;20131;-73
2023/09/25 01:21:33;;;;;;;0.45;0.45;;;12.50;99.90;;;;;;5028321;28;20496;-72
2023/09/25 01:23:59;;;;;;;0.40;0.40;;;12.50;99.90;;;;;;5026954;28;20049;-73
2023/09/25 01:26:24;;;;;;;0.43;0.43;;;12.50;99.90;;;;;;5028318;28;20068;-72
2023/09/25 01:28:50;;;;;;;0.43;0.43;;;12.50;99.90;;;;;;5028579;28;20472;-73
2023/09/25 01:31:16;;;;;;;0.85;0.85;;;12.50;99.90;;;;;;5028465;28;20084;-72
2023/09/25 01:33:41;;;;;;;0.60;0.60;;;12.50;99.90;;;;;;5027971;28;20695;-72
2023/09/25 01:36:09;;;;;;;0.35;0.35;;;12.50;99.90;;;;;;5029163;28;20575;-73
2023/09/25 01:38:34;;;;;;;0.40;0.40;;;12.50;99.90;;;;;;5029414;28;20408;-73
2023/09/25 01:41:01;;;;;;;0.43;0.43;;;12.50;99.90;;;;;;5030116;28;20049;-73
2023/09/25 01:43:27;;;;;;;0.40;0.40;;;12.50;99.90;;;;;;5028829;28;20072;-73
2023/09/25 01:45:52;;;;;;;0.20;0.20;;;12.50;99.90;;;;;;5029367;28;20366;-74
2023/09/25 01:48:18;;;;;;;0.30;0.30;;;12.50;99.90;;;;;;5029098;28;20057;-73
2023/09/25 01:50:43;;;;;;;0.35;0.35;;;12.40;99.90;;;;;;5029017;28;20068;-73
2023/09/25 01:53:09;;;;;;;0.30;0.30;;;12.40;99.90;;;;;;5029066;28;20041;-73
2023/09/25 01:55:35;;;;;;;0.40;0.40;;;12.30;99.90;;;;;;5027132;28;20140;-73
2023/09/25 01:58:06;;;;;;;0.35;0.35;;;12.30;99.90;;;;;;5028760;28;20088;-73
2023/09/25 02:00:32;;;;;;;0.25;0.25;;;12.30;99.90;;;;;;5027566;28;20077;-74
2023/09/25 02:02:57;;;;;;;0.40;0.40;;;12.20;99.90;;;;;;5029403;28;20080;-73
2023/09/25 02:05:23;;;;;;;0.30;0.30;;;12.20;99.90;;;;;;5028441;28;20060;-73
2023/09/25 02:07:49;;;;;;;0.30;0.30;;;12.20;99.90;;;;;;5028229;28;20053;-73
2023/09/25 02:10:15;;;;;;;0.32;0.32;;;12.20;99.90;;;;;;5029948;28;20069;-73
2023/09/25 02:12:40;;;;;;;0.40;0.40;;;12.20;99.90;;;;;;5026739;28;20069;-73
2023/09/25 02:15:08;;;;;;;0.40;0.40;;;12.10;99.90;;;;;;5028912;28;20080;-73
2023/09/25 02:17:34;;;;;;;0.30;0.30;;;12.10;99.90;;;;;;5026404;28;20099;-73
2023/09/25 02:20:12;;;;;;;0.25;0.25;;;12.00;99.90;;;;;;5029094;28;20049;-73
2023/09/25 02:22:39;;;;;;;0.40;0.40;;;11.90;99.90;;;;;;5028009;28;20529;-73
2023/09/25 02:25:05;;;;;;;0.43;0.43;;;12.00;99.90;;;;;;5029170;28;20041;-74
2023/09/25 02:27:31;;;;;;;0.30;0.30;;;12.00;99.90;;;;;;5028919;28;20045;-74
2023/09/25 02:29:57;;;;;;;0.40;0.40;;;12.00;99.90;;;;;;5029052;28;20450;-73
2023/09/25 02:32:23;;;;;;;;;;;12.00;99.90;;;;;;5028663;28;20068;-74
2023/09/25 02:34:48;;;;;;;0.60;0.60;;;12.10;99.90;;;;;;5027032;28;20299;-74
2023/09/25 02:37:14;;;;;;;0.30;0.30;;;12.10;99.90;;;;;;5028004;28;20115;-74
2023/09/25 02:39:40;;;;;;;0.40;0.40;;;12.10;99.90;;;;;;5027001;28;20092;-73
2023/09/25 02:42:05;;;;;;;0.55;0.52;;;12.20;99.90;;;;;;5026307;28;20049;-74
2023/09/25 02:44:31;;;;;;;0.45;0.45;;;12.20;99.90;;;;;;5027740;28;20057;-74
2023/09/25 02:46:58;;;;;;;0.30;0.30;;;12.30;99.90;;;;;;5028051;28;20531;-73
2023/09/25 02:49:24;;;;;;;0.30;0.30;;;12.30;99.90;;;;;;5026255;28;20099;-73
2023/09/25 02:51:50;;;;;;;0.60;0.60;;;12.30;99.90;;;;;;5026736;28;20045;-73
2023/09/25 02:54:15;;;;;;;0.30;0.30;;;12.20;99.90;;;;;;5026773;28;20053;-72
2023/09/25 02:56:41;;;;;;;0.40;0.40;;;12.20;99.90;;;;;;5027039;28;20045;-72
2023/09/25 02:59:07;;;;;;;0.38;0.38;;;12.20;99.90;;;;;;5027299;28;20072;-73
2023/09/25 03:01:34;;;;;;;0.40;0.40;;;12.20;99.90;;;;;;5028528;28;20118;-73
2023/09/25 03:03:59;;;;;;;;;;;12.10;99.90;;;;;;5027946;28;20049;-73
2023/09/25 03:06:25;;;;;;;0.57;0.57;;;12.20;99.90;;;;;;5028273;28;19924;-73
2023/09/25 03:08:51;;;;;;;0.30;0.30;;;12.10;99.90;;;;;;5026559;28;20057;-73
2023/09/25 03:11:16;;;;;;;0.68;0.68;;;12.10;99.90;;;;;;5028698;28;20064;-72
2023/09/25 03:13:42;;;;;;;0.28;0.28;;;12.10;99.90;;;;;;5027374;28;20106;-73
2023/09/25 03:16:15;;;;;;;0.40;0.40;;;12.00;99.90;;;;;;5027425;28;20187;-73
2023/09/25 03:18:41;;;;;;;0.38;0.38;;;12.00;99.90;;;;;;5030490;28;20085;-73
2023/09/25 03:21:11;;;;;;;0.30;0.30;;;12.00;99.90;;;;;;5028447;28;20065;-73
2023/09/25 03:23:37;;;;;;;0.40;0.40;;;11.90;99.90;;;;;;5027032;28;20085;-73
2023/09/25 03:26:03;;;;;;;;;;;11.90;99.90;;;;;;5028256;28;20060;-73
2023/09/25 03:28:28;;;;;;;0.47;0.47;;;11.90;99.90;;;;;;5027640;28;19928;-73
2023/09/25 03:30:54;;;;;;;0.40;0.40;;;11.80;99.90;;;;;;5023856;28;20488;-73
2023/09/25 03:33:21;;;;;;;0.40;0.40;;;11.80;99.90;;;;;;5027699;28;20049;-73
2023/09/25 03:35:47;;;;;;;0.38;0.38;;;11.90;99.90;;;;;;5027796;28;20484;-73
2023/09/25 03:38:12;;;;;;;0.80;0.77;;;11.70;99.90;;;;;;5027981;28;20046;-74
2023/09/25 03:40:38;;;;;;;0.30;0.30;;;11.70;99.90;;;;;;5026657;28;20042;-73
2023/09/25 03:43:04;;;;;;;0.40;0.40;;;11.70;99.90;;;;;;5027351;28;20038;-72
2023/09/25 03:45:30;;;;;;;0.40;0.40;;;11.60;99.90;;;;;;5027995;28;20427;-73
2023/09/25 03:47:55;;;;;;;0.40;0.40;;;11.60;99.90;;;;;;5027917;28;20107;-73
2023/09/25 03:50:21;;;;;;;0.40;0.40;;;11.60;99.90;;;;;;5027132;28;20049;-73
2023/09/25 03:52:47;;;;;;;0.40;0.40;;;11.60;99.90;;;;;;5027718;28;20049;-73
2023/09/25 03:55:13;;;;;;;0.50;0.50;;;11.60;99.90;;;;;;5027726;28;20107;-73
2023/09/25 03:57:38;;;;;;;1.70;1.60;;;11.60;99.90;;;;;;5026672;28;20056;-73
2023/09/25 04:00:06;;;;;;;0.68;0.68;;;11.50;99.90;;;;;;5025012;28;20042;-73
2023/09/25 04:02:32;;;;;;;0.40;0.40;;;11.60;99.90;;;;;;5009661;28;20049;-72
2023/09/25 04:04:57;;;;;;;0.50;0.50;;;11.60;99.90;;;;;;5026710;28;20049;-74
2023/09/25 04:07:23;;;;;;;0.30;0.30;;;11.60;99.90;;;;;;5024017;28;20037;-73
2023/09/25 04:09:49;;;;;;;0.40;0.40;;;11.60;99.90;;;;;;5025921;28;20070;-73
2023/09/25 04:12:14;;;;;;;0.50;0.50;;;11.60;99.90;;;;;;5027550;28;20042;-73
2023/09/25 04:14:41;;;;;;;0.43;0.43;;;11.60;99.90;;;;;;5027732;28;20064;-73
2023/09/25 04:17:08;;;;;;;0.60;0.60;;;11.50;99.90;;;;;;5027638;28;20045;-73
2023/09/25 04:19:34;;;;;;;0.40;0.40;;;11.50;99.90;;;;;;5031626;28;20061;-73
2023/09/25 04:21:59;;;;;;;0.40;0.40;;;11.60;99.90;;;;;;5031349;28;20048;-73
2023/09/25 04:24:25;;;;;;;0.50;0.50;;;11.60;99.90;;;;;;5031353;28;20207;-72
2023/09/25 04:26:54;;;;;;;0.40;0.40;;;11.50;99.90;;;;;;5032719;28;20049;-74
2023/09/25 04:29:20;;;;;;;0.38;0.38;;;11.50;99.90;;;;;;5028464;28;20138;-73
2023/09/25 04:31:48;;;;;;;0.32;0.32;;;11.50;99.90;;;;;;5030133;28;20521;-73
2023/09/25 04:34:14;;;;;;;1.20;1.17;;;11.50;99.90;;;;;;5031225;28;20052;-73
2023/09/25 04:36:39;;;;;;;0.60;0.60;;;11.50;99.90;;;;;;5029731;28;20041;-73
2023/09/25 04:39:05;;;;;;;0.30;0.30;;;11.50;99.90;;;;;;5031166;28;20048;-73
2023/09/25 04:41:31;;;;;;;1.05;0.88;;;11.60;99.90;;;;;;5030946;28;20091;-73
2023/09/25 04:43:57;;;;;;;0.82;0.82;;;11.60;99.90;;;;;;5030410;28;20060;-73
2023/09/25 04:46:23;;;;;;;0.40;0.40;;;11.70;99.90;;;;;;5030033;28;20049;-74
2023/09/25 04:48:50;;;;;;;0.93;0.60;;;11.60;99.90;;;;;;5029896;28;20060;-74
2023/09/25 04:51:16;;;;;;;0.50;0.50;;;11.70;99.90;;;;;;5030357;28;20437;-73
2023/09/25 04:53:42;;;;;;;0.40;0.40;;;11.70;99.90;;;;;;5030836;28;20150;-73
2023/09/25 04:56:10;;;;;;;0.43;0.43;;;11.70;99.90;;;;;;5029763;28;20477;-73
2023/09/25 04:58:36;;;;;;;0.30;0.30;;;11.70;99.90;;;;;;5029915;28;20049;-73
2023/09/25 05:01:02;;;;;;;0.40;0.40;;;11.70;99.90;;;;;;5029545;28;20163;-73
2023/09/25 05:03:27;;;;;;;0.50;0.50;;;11.80;99.90;;;;;;5030376;28;20049;-73
2023/09/25 05:05:53;;;;;;;0.30;0.30;;;11.80;99.90;;;;;;5029518;28;20041;-73
2023/09/25 05:08:19;;;;;;;0.60;0.60;;;11.70;99.90;;;;;;5030219;28;20075;-73
2023/09/25 05:10:45;;;;;;;0.40;0.40;;;11.80;99.90;;;;;;5028740;28;20044;-72
2023/09/25 05:13:11;;;;;;;0.40;0.40;;;11.80;99.90;;;;;;5028171;28;20049;-73
2023/09/25 05:15:37;;;;;;;0.45;0.45;;;11.70;99.90;;;;;;5011054;28;20427;-73
2023/09/25 05:18:03;;;;;;;0.30;0.30;;;11.80;99.90;;;;;;5022709;28;20263;-72
2023/09/25 05:20:28;;;;;;;0.40;0.40;;;11.70;99.90;;;;;;5023514;28;20044;-72
2023/09/25 05:22:56;;;;;;;0.65;0.65;;;11.70;99.90;;;;;;5031362;28;20075;-73
2023/09/25 05:25:22;;;;;;;1.10;1.10;;;11.70;99.90;;;;;;5028063;28;20128;-73
2023/09/25 05:27:50;;;;;;;0.40;0.40;;;11.70;99.90;;;;;;5028689;28;20079;-73
2023/09/25 05:30:17;;;;;;;0.35;0.35;;;11.70;99.90;;;;;;5028827;28;20038;-73
2023/09/25 05:32:48;;;;;;;0.55;0.55;;;11.70;99.90;;;;;;5029441;28;20052;-73
2023/09/25 05:35:14;;;;;;;0.50;0.50;;;11.70;99.90;;;;;;5029160;28;20045;-73
2023/09/25 05:37:42;;;;;;;0.40;0.40;;;11.70;99.90;;;;;;5028015;28;20114;-73
2023/09/25 05:40:11;;;;;;;0.40;0.40;;;11.70;99.90;;;;;;5025141;28;20046;-74
2023/09/25 05:42:44;;;;;;;0.40;0.40;;;11.60;99.90;;;;;;5033375;28;20485;-73
2023/09/25 05:45:12;;;;;;;0.60;0.60;;;11.70;99.90;;;;;;5028023;28;20417;-73
2023/09/25 05:47:38;;;;;;;0.28;0.28;;;11.60;99.90;;;;;;5029243;28;20057;-72
2023/09/25 05:50:07;;;;;;;0.60;0.60;;;11.60;99.90;;;;;;5028389;28;20131;-73
2023/09/25 05:52:37;;;;;;;0.50;0.50;;;11.60;99.90;;;;;;5044705;28;20060;-73
2023/09/25 05:55:04;;;;;;;0.63;0.63;;;11.60;99.90;;;;;;5028920;28;20081;-73
2023/09/25 05:57:31;;;;;;;0.40;0.40;;;11.60;99.90;;;;;;5028223;28;20042;-73
2023/09/25 05:59:57;;;;;;;;;;;11.60;99.90;;;;;;5029904;28;20121;-73
2023/09/25 06:02:22;;;;;;;0.45;0.45;;;11.70;99.90;;;;;;5029303;28;19964;-73
2023/09/25 06:04:48;;;;;;;0.50;0.50;;;11.80;99.90;;;;;;5029482;28;20085;-73
2023/09/25 06:07:14;;;;;;;0.45;0.45;;;11.80;99.90;;;;;;5030198;28;20044;-73
2023/09/25 06:09:40;;;;;;;0.45;0.45;;;11.90;99.90;;;;;;5031287;28;20083;-74
2023/09/25 06:12:06;;;;;;;0.38;0.38;;;11.90;99.90;;;;;;5029076;28;20037;-73
2023/09/25 06:14:31;;;;;;;0.30;0.30;;;12.00;99.90;;;;;;5041651;28;20132;-74
2023/09/25 06:16:59;;;;;;;0.45;0.45;;;12.10;99.90;;;;;;5028521;28;20148;-74
2023/09/25 06:19:25;;;;;;;0.40;0.40;;;12.20;99.90;;;;;;5044459;28;20073;-74
2023/09/25 06:21:52;;;;;;;0.40;0.40;;;12.30;99.90;;;;;;5027443;28;20128;-74
2023/09/25 06:24:17;;;;;;;0.50;0.50;;;12.30;99.90;;;;;;5027588;28;20433;-74
2023/09/25 06:26:46;;;;;;;0.77;0.77;;;12.40;99.90;;;;;;5029579;28;20132;-74
2023/09/25 06:29:13;;;;;;;0.47;0.47;;;12.50;99.90;;;;;;5030717;28;20155;-74
2023/09/25 06:31:40;;;;;;;0.65;0.65;;;12.50;99.90;;;;;;5024902;28;20041;-74
2023/09/25 06:34:09;;;;;;;0.40;0.40;;;12.60;99.90;;;;;;5028239;28;20049;-72
2023/09/25 06:36:36;;;;;;;0.35;0.35;;;12.60;99.90;;;;;;5028836;28;20051;-73
2023/09/25 06:39:02;;;;;;;;;;;12.60;99.90;;;;;;5025991;28;20041;-73
2023/09/25 06:41:27;;;;;;;0.50;0.50;;;12.70;99.90;;;;;;5035135;28;19951;-73
2023/09/25 06:43:54;;;;;;;0.40;0.40;;;12.70;99.90;;;;;;5028803;28;20132;-73
2023/09/25 06:46:20;;;;;;;0.30;0.30;;;12.70;99.90;;;;;;5026514;28;20465;-72
2023/09/25 06:48:50;;;;;;;1.25;1.20;;;12.80;99.90;;;;;;5025907;28;20081;-73
2023/09/25 06:51:16;;;;;;;1.20;1.20;;;12.80;99.90;;;;;;5022138;28;20057;-73
2023/09/25 06:53:43;;;;;;;0.50;0.50;;;12.80;99.90;;;;;;5024436;28;20120;-72
2023/09/25 06:56:10;;;;;;;0.40;0.40;;;12.90;99.90;;;;;;5033735;28;20044;-73
2023/09/25 06:58:36;;;;;;;1.40;0.50;;;12.90;99.90;;;;;;5033329;28;20124;-73
2023/09/25 07:01:02;;;;;;;1.02;1.00;;;12.90;99.90;;;;;;5026500;28;20400;-73
2023/09/25 07:03:29;;;;;;;0.30;0.30;;;12.90;99.90;;;;;;5027748;28;20037;-73
2023/09/25 07:05:55;;;;;;;0.40;0.40;;;12.90;99.90;;;;;;5032639;28;20054;-73
2023/09/25 07:08:22;;;;;;;0.98;0.82;;;12.90;99.90;;;;;;5036347;28;20037;-73
2023/09/25 07:10:49;;;;;;;;;;;13.00;99.90;;;;;;5015879;28;20052;-73
2023/09/25 07:13:15;;;;;;;0.82;0.70;;;13.00;99.90;;;;;;5023604;28;19933;-73
2023/09/25 07:15:43;;;;;;;0.47;0.47;;;13.10;99.90;;;;;;5025159;28;20107;-74
2023/09/25 07:18:09;;;;;;;0.70;0.70;;;13.10;99.90;;;;;;5026187;28;20405;-75
2023/09/25 07:20:35;;;;;;;;;;;13.10;99.90;;;;;;5027732;28;20044;-74
2023/09/25 07:23:00;;;;;;;0.40;0.40;;;13.20;99.90;;;;;;5026358;28;19949;-75
2023/09/25 07:25:26;;;;;;;0.55;0.55;;;13.20;99.90;;;;;;5025081;28;20057;-76
2023/09/25 07:27:52;;;;;;;0.38;0.38;;;13.30;99.90;;;;;;5021945;28;20126;-74
2023/09/25 07:30:18;;;;;;;0.40;0.40;;;13.30;99.90;;;;;;5022273;28;20073;-75
2023/09/25 07:32:43;;;;;;;0.50;0.50;;;13.40;99.90;;;;;;5026729;28;20056;-75
2023/09/25 07:35:11;;;;;;;0.40;0.40;;;13.40;99.90;;;;;;5025055;28;20132;-74
2023/09/25 07:37:41;;;;;;;0.60;0.60;;;13.50;99.90;;;;;;5026595;28;20129;-74
2023/09/25 07:40:11;;;;;;;0.88;0.85;;;13.60;99.90;;;;;;5023557;28;20620;-74
2023/09/25 07:42:40;;;;;;;0.30;0.30;;;13.70;99.90;;;;;;5019552;28;20080;-74
2023/09/25 07:45:11;;;;;;;0.30;0.30;;;13.70;99.90;;;;;;5023021;28;20054;-75
2023/09/25 07:47:38;;;;;;;0.50;0.50;;;13.90;99.90;;;;;;5026810;28;20060;-76
2023/09/25 07:50:11;;;;;;;0.30;0.30;;;14.00;99.90;;;;;;5025755;28;20575;-74
2023/09/25 07:52:42;;;;;;;0.40;0.40;;;14.10;99.90;;;;;;5026404;28;20056;-73
2023/09/25 07:55:11;;;;;;;0.30;0.30;;;14.20;99.90;;;;;;5016893;28;20254;-74
2023/09/25 07:57:42;;;;;;;0.35;0.35;;;14.30;99.90;;;;;;5010692;28;20049;-74
2023/09/25 08:00:11;;;;;;;0.40;0.40;;;14.40;99.90;;;;;;5028380;28;20111;-74
2023/09/25 08:02:47;;;;;;;1.33;0.77;;;14.50;99.90;;;;;;5029735;28;20060;-75
2023/09/25 08:05:18;;;;;;;0.22;0.22;;;14.50;99.90;;;;;;5029573;28;20480;-75
2023/09/25 08:07:48;;;;;;;0.20;0.20;;;14.50;99.90;;;;;;5029543;28;20046;-74
2023/09/25 08:10:14;;;;;;;0.30;0.30;;;14.60;99.90;;;;;;5028918;28;20046;-74
2023/09/25 08:12:40;;;;;;;0.40;0.40;;;14.70;99.90;;;;;;5029216;28;20284;-74
2023/09/25 08:15:07;;;;;;;0.38;0.38;;;14.60;99.90;;;;;;5028038;28;20064;-74
2023/09/25 08:17:33;;;;;;;0.40;0.40;;;14.70;99.90;;;;;;5029279;28;20045;-75
2023/09/25 08:20:00;;;;;;;0.55;0.55;;;14.80;99.90;;;;;;5030093;28;20056;-75
2023/09/25 08:22:26;;;;;;;0.70;0.70;;;14.90;99.90;;;;;;5028197;28;20317;-74
2023/09/25 08:24:52;;;;;;;0.93;0.70;;;14.90;99.90;;;;;;5045049;28;20349;-74
2023/09/25 08:27:20;;;;;;;0.40;0.40;;;15.00;99.90;;;;;;5028116;28;20158;-74
2023/09/25 08:29:47;;;;;;;0.32;0.32;;;15.00;99.90;;;;;;5028853;28;20400;-75
2023/09/25 08:32:12;;;;;;;0.32;0.32;;;15.10;99.90;;;;;;5028294;28;20045;-75
2023/09/25 08:34:38;;;;;;;0.30;0.30;;;15.20;99.90;;;;;;5029967;28;20049;-75
2023/09/25 08:37:04;;;;;;;0.40;0.40;;;15.30;99.90;;;;;;5029787;28;20045;-74
2023/09/25 08:39:29;;;;;;;1.17;1.17;;;15.40;99.90;;;;;;5029210;28;20041;-74
2023/09/25 08:41:56;;;;;;;;;;;15.40;99.90;;;;;;5031303;28;20045;-74
2023/09/25 08:44:22;;;;;;;0.40;0.40;;;15.50;99.90;;;;;;5026338;28;19924;-74
2023/09/25 08:46:49;;;;;;;0.40;0.40;;;15.60;99.90;;;;;;5025453;28;20326;-75
2023/09/25 08:49:15;;;;;;;0.50;0.50;;;15.70;99.90;;;;;;5028657;28;20167;-75
2023/09/25 08:51:41;;;;;;;0.30;0.30;;;16.50;99.90;;;;;;5011703;28;20049;-75
2023/09/25 08:54:07;;;;;;;0.40;0.40;;;16.00;99.90;;;;;;5028945;28;20128;-74
2023/09/25 08:56:33;;;;;;;0.60;0.60;;;16.20;99.90;;;;;;5027570;28;20516;-74
2023/09/25 08:59:05;;;;;;;;;;;16.20;99.90;;;;;;5027834;28;20631;-74
2023/09/25 09:01:32;;;;;;;0.30;0.30;;;16.20;99.90;;;;;;5046267;28;20113;-74
2023/09/25 09:03:58;;;;;;;;;;;16.30;99.90;;;;;;5029148;28;20041;-75
2023/09/25 09:06:23;;;;;;;0.75;0.75;;;16.30;99.90;;;;;;5028903;28;19932;-74
2023/09/25 09:08:51;;;;;;;;;;;16.40;99.90;;;;;;5028858;28;20053;-74
2023/09/25 09:11:16;;;;;;;1.50;1.40;;;16.40;99.90;;;;;;5028731;28;20145;-75
2023/09/25 09:13:43;;;;;;;;;;;;;;;;;;5028294;28;20057;-74
2023/09/25 09:16:12;;;;;;;0.63;0.63;;;16.50;99.90;;;;;;5029092;28;19995;-74
2023/09/25 09:18:38;;;;;;;0.30;0.30;;;16.50;99.90;;;;;;5028668;28;20159;-74
2023/09/25 09:21:04;;;;;;;0.50;0.50;;;16.50;99.90;;;;;;5022623;28;20461;-75
2023/09/25 09:23:41;;;;;;;0.47;0.47;;;16.70;99.90;;;;;;5026355;28;20076;-75
2023/09/25 09:26:10;;;;;;;0.30;0.30;;;16.60;99.90;;;;;;5028887;28;20042;-74
2023/09/25 09:28:37;;;;;;;0.30;0.30;;;;;;;;;;5027414;28;20054;-74
2023/09/25 09:31:07;;;;;;;0.93;0.93;;;16.80;99.90;;;;;;5012154;28;20369;-74
2023/09/25 09:33:37;;;;;;;0.38;0.38;;;16.80;99.90;;;;;;5027316;28;20072;-75
2023/09/25 09:36:03;;;;;;;0.30;0.30;;;16.80;99.90;;;;;;5027164;28;20776;-74
2023/09/25 09:38:29;;;;;;;0.45;0.45;;;16.90;99.90;;;;;;5026658;28;20083;-75
2023/09/25 09:40:56;;;;;;;1.15;1.15;;;16.90;99.90;;;;;;5028582;28;20057;-74
2023/09/25 09:43:23;;;;;;;0.40;0.40;;;16.90;99.90;;;;;;5026992;28;20069;-75
2023/09/25 09:45:50;;;;;;;0.40;0.40;;;17.00;99.90;;;;;;5026431;28;20098;-74
2023/09/25 09:48:19;;;;;;;0.28;0.28;;;17.00;99.90;;;;;;5026015;28;20557;-74
2023/09/25 09:50:48;;;;;;;0.30;0.30;;;17.10;99.90;;;;;;5026470;28;20635;-75
2023/09/25 09:53:17;;;;;;;0.20;0.20;;;17.10;99.90;;;;;;5027594;28;20075;-75
2023/09/25 09:55:44;;;;;;;3.53;0.95;;;17.20;99.90;;;;;;5026827;28;20052;-75
2023/09/25 09:58:11;;;;;;;0.40;0.40;;;17.20;99.90;;;;;;5026474;28;20551;-75
2023/09/25 10:00:41;;;;;;;0.40;0.40;;;17.40;99.90;;;;;;5025011;28;20156;-75
2023/09/25 10:03:08;;;;;;;0.30;0.30;;;17.40;99.90;;;;;;5026596;28;20137;-75
2023/09/25 10:06:04;;;;;;;0.40;0.40;;;17.50;99.90;;;;;;5027387;28;20107;-75
2023/09/25 10:08:31;;;;;;;0.95;0.82;;;17.50;99.90;;;;;;5014136;28;20057;-75
2023/09/25 10:11:20;;;;;;;0.30;0.30;;;17.60;99.90;;;;;;5026241;28;20049;-75
2023/09/25 10:13:46;;;;;;;0.30;0.30;;;17.60;99.90;;;;;;5025772;28;20061;-75
2023/09/25 10:16:14;;;;;;;1.30;1.20;;;17.70;99.90;;;;;;5025279;28;20045;-75
2023/09/25 10:18:41;;;;;;;0.20;0.20;;;17.80;99.90;;;;;;5026408;28;20057;-75
2023/09/25 10:21:13;;;;;;;0.40;0.40;;;18.00;99.90;;;;;;5025185;28;20045;-75
2023/09/25 10:23:45;;;;;;;0.32;0.32;;;18.10;99.90;;;;;;5024427;28;20113;-75
2023/09/25 10:26:19;;;;;;;0.30;0.30;;;18.10;99.90;;;;;;5026936;28;20568;-74
2023/09/25 10:28:55;;;;;;;0.60;0.40;;;18.10;99.90;;;;;;5025155;28;20065;-74
2023/09/25 10:31:24;;;;;;;0.40;0.40;;;18.20;99.90;;;;;;5011466;28;20042;-75
2023/09/25 10:33:54;;;;;;;0.52;0.52;;;18.30;99.90;;;;;;5027077;28;20414;-74
2023/09/25 10:36:20;;;;;;;0.50;0.50;;;18.50;99.90;;;;;;5026590;28;20042;-74
2023/09/25 10:38:51;;;;;;;;;;;18.50;99.90;;;;;;5027493;28;20118;-74
2023/09/25 10:41:17;;;;;;;0.50;0.50;;;18.60;99.90;;;;;;5028990;28;19921;-75
2023/09/25 10:43:42;;;;;;;;;;;18.70;99.90;;;;;;5041507;28;20487;-75
2023/09/25 10:46:10;;;;;;;0.68;0.68;;;18.70;99.90;;;;;;5040995;28;19943;-76
2023/09/25 10:48:35;;;;;;;0.30;0.30;;;18.80;99.90;;;;;;5025701;28;20072;-75
2023/09/25 10:51:01;;;;;;;;;;;18.90;99.90;;;;;;5026841;28;20049;-75
2023/09/25 10:53:27;;;;;;;0.75;0.75;;;18.90;99.90;;;;;;5024057;28;19925;-75
2023/09/25 10:55:53;;;;;;;;;;;19.00;99.90;;;;;;5027320;28;20057;-75
2023/09/25 10:58:21;;;;;;;0.80;0.80;;;19.10;99.90;;;;;;5036543;28;19921;-75
2023/09/25 11:00:49;;;;;;;0.35;0.35;;;19.10;99.90;;;;;;5023791;28;20136;-75
2023/09/25 11:03:15;;;;;;;1.08;0.68;;;19.20;99.90;;;;;;5026361;28;20092;-75
2023/09/25 11:05:41;;;;;;;;;;;19.20;99.90;;;;;;5025383;28;20053;-76
2023/09/25 11:08:13;;;;;;;0.40;0.40;;;19.20;99.90;;;;;;5025169;28;19932;-75
2023/09/25 11:10:40;;;;;;;0.40;0.40;;;19.20;99.90;;;;;;5024193;28;20137;-76
2023/09/25 11:13:05;;;;;;;0.47;0.47;;;19.30;99.90;;;;;;5020813;28;20069;-75
2023/09/25 11:15:36;;;;;;;;;;;19.30;99.90;;;;;;5017906;28;20065;-75
2023/09/25 11:18:01;;;;;;;0.43;0.43;;;19.30;99.90;;;;;;5024678;28;19991;-75
2023/09/25 11:20:29;;;;;;;;;;;19.40;99.90;;;;;;5021857;28;20049;-76
2023/09/25 11:23:09;;;;;;;0.20;0.20;;;19.40;99.90;;;;;;5022132;28;19931;-76
2023/09/25 11:25:42;;;;;;;0.40;0.40;;;19.50;99.90;;;;;;5023788;28;20061;-75
2023/09/25 11:28:11;;;;;;;0.50;0.50;;;19.50;99.90;;;;;;5029512;28;20106;-74
2023/09/25 11:30:38;;;;;;;0.30;0.30;;;19.60;99.90;;;;;;5024057;28;20053;-75
2023/09/25 11:33:08;;;;;;;0.30;0.30;;;19.60;99.90;;;;;;5025586;28;20504;-75
2023/09/25 11:35:44;;;;;;;0.50;0.50;;;19.80;99.90;;;;;;5024982;28;20164;-75
2023/09/25 11:38:17;;;;;;;0.52;0.52;;;19.90;99.90;;;;;;5022120;28;20041;-75
2023/09/25 11:40:45;;;;;;;1.67;0.55;;;20.10;99.90;;;;;;5027711;28;20495;-75
2023/09/25 11:43:12;;;;;;;0.45;0.45;;;20.20;99.90;;;;;;5029113;28;20561;-75
2023/09/25 11:45:39;;;;;;;0.57;0.57;;;20.30;99.90;;;;;;5031663;28;20049;-75
2023/09/25 11:48:05;;;;;;;0.20;0.20;;;20.30;99.90;;;;;;5030257;28;20119;-76
2023/09/25 11:50:32;;;;;;;0.63;0.63;;;20.30;99.90;;;;;;5028851;28;20184;-76
2023/09/25 11:52:57;;;;;;;0.30;0.30;;;20.40;99.90;;;;;;5031789;28;20132;-75
2023/09/25 11:55:23;;;;;;;0.30;0.30;;;20.40;99.90;;;;;;5026735;28;20390;-75
2023/09/25 11:57:49;;;;;;;0.20;0.20;;;20.60;99.90;;;;;;5029212;28;20060;-76
2023/09/25 12:00:15;;;;;;;;;;;20.70;99.90;;;;;;5028555;28;20073;-76
2023/09/25 12:02:43;;;;;;;0.75;0.75;;;20.70;99.90;;;;;;5024325;28;19936;-75
2023/09/25 12:05:09;;;;;;;0.43;0.43;;;20.80;99.90;;;;;;5030223;28;20069;-75
2023/09/25 12:07:38;;;;;;;0.20;0.20;;;21.10;99.90;;;;;;5030643;28;20049;-76
2023/09/25 12:10:05;;;;;;;0.30;0.30;;;21.40;99.90;;;;;;5025119;28;20049;-76
2023/09/25 12:12:39;;;;;;;0.20;0.20;;;21.50;99.90;;;;;;5033399;28;20503;-75
2023/09/25 12:15:07;;;;;;;0.60;0.60;;;21.50;99.90;;;;;;5026251;28;20118;-75
2023/09/25 12:17:34;;;;;;;0.30;0.30;;;21.80;99.90;;;;;;5028974;28;20809;-76
2023/09/25 12:20:12;;;;;;;2.78;0.60;;;21.60;99.90;;;;;;5030041;28;20053;-75
2023/09/25 12:22:42;;;;;;;0.50;0.50;;;21.70;99.90;;;;;;5025588;28;20503;-76
2023/09/25 12:25:11;;;;;;;4.03;0.60;;;21.60;99.90;;;;;;5024118;28;20130;-75
2023/09/25 12:27:38;;;;;;;0.20;0.20;;;21.70;99.90;;;;;;5029017;28;20076;-75
2023/09/25 12:30:07;;;;;;;0.20;0.20;;;21.80;99.90;;;;;;5025067;28;20445;-75
2023/09/25 12:32:33;;;;;;;0.47;0.47;;;21.90;99.90;;;;;;5028473;28;20049;-75
2023/09/25 12:35:00;;;;;;;0.43;0.43;;;22.10;99.90;;;;;;5030116;28;20049;-75
2023/09/25 12:37:25;;;;;;;0.30;0.30;;;21.90;99.90;;;;;;5029995;28;20076;-75
2023/09/25 12:39:52;;;;;;;1.38;1.08;;;21.70;99.90;;;;;;5027862;28;20065;-76
2023/09/25 12:42:19;;;;;;;0.43;0.43;;;21.60;99.90;;;;;;5027578;28;20120;-75
2023/09/25 12:44:46;;;;;;;0.15;0.15;;;21.40;99.90;;;;;;5026060;28;20046;-76
2023/09/25 12:47:12;;;;;;;0.30;0.30;;;21.30;99.90;;;;;;5027155;28;20074;-75
2023/09/25 12:49:38;;;;;;;0.30;0.30;;;21.20;99.90;;;;;;5028098;28;20516;-75
2023/09/25 12:52:04;;;;;;;0.35;0.35;;;21.10;99.90;;;;;;5040405;28;20155;-75